Jennifer Blanchard: (908) 432-0318
Basking Ridge Real Estate – Jennifer Blanchard

Basking Ridge Real Estate

Career Transactions

Don't forget to zoom out!

She had my best interest at heart
ptHLimeyBoy

Marie G., “I knew nothing about selling my house. Ms. Blanchard instructed, supported and advised me to a very positive outcome. She was honest and outspoken about any questions I might have. I came to trust her advice and to know that she had my best interest at heart when she was giving me the help I so  obviously needed. I trust her judgment, but best of all , I came to admire and like her.” Read More

Jennifer is fantastic
ptHLimeyBoy

Diana R., “Jennifer is fantastic. While I haven't made a decision to sell my home as of yet, I know I will use her when I am ready to make that decision. She offered me some great advice on what small changes I could make to prepare my house for a sale.” Read More

Extremely knowledgeable
ptHLimeyBoy

Amy S., “Jen was extremely knowledgeable and because of her we got two offers within 2 and a half months! I highly recommend her and her partner Amy Showefty to everyone selling or buying a home!” Read More

It's hard to find someone as trustworthy.
ptHLimeyBoy

Jen B., “Buying or selling a home can be so stressful! Jennifer helped us to stay calm - great advice and truly had our best interests at heart. It's hard to find someone as trustworthy.” Read More

Went above and beyond
ptHLimeyBoy

Kim G., “Jennifer went above and beyond at every level of the listing and sale of my condo - from bringing a photographer in to show off the unit's best features, to scheduling open houses at peak sales times, guidance through buyer negotiations and home inspection, and even helping coordinate repair work needed prior to close. She is "a mover and a shaker" and a real deal-maker!” Read More

Spring Ridge, Basking Ridge, Featured Community

This 326-acre complex is bordered by over 100 acres of undisturbed open space. Spring Ridge is a community is comprised mostly of two and three bedroom condos, but there are a handful of duplexes as well as single family homes. The condo buildings are typically three stories – ground, first and second floor units. The ground floor units are the one bedroom models and these don’t typically feature basement storage though they do have a large pantry in the kitchen.

Read more about Spring Ridge Search Spring Ridge Homes for Sale

Monthly Real Basking Ridge Estate Market Data

Follow the closed real estate transactions in the Basking Ridge real estate market here. Each month I post every closed single family and townhouse/condo in Basking Ridge.

2017 August Basking Ridge Single Family Homes Sold
Street Address Development Style Bds Bths DOM List Price Sold Price %SP/LP Closed
28 Brentwood Ct   Colonial 6 4.2 76 $1,286,600 $1,237,500 96% 8/31/17
6 DAWN DR Basking Ridge Colonial 4 2.1 13 $729,900 $725,000 99% 8/31/17
34 Hansom Road Liberty Ridge Colonial 4 3.1 5 $850,000 $845,000 99% 8/31/17
118 Penwood Road Glenbrooke Colonial 4 2.1 47 $749,000 $737,000 98% 8/31/17
20 Canoe Brook Lane Ravenswood Colonial 5 5.2 29 $1,425,000 $1,400,000 98% 8/30/17
10 Alder Ln Carlisle/ The Hills Colonial 4 3.1 20 $825,000 $827,000 100% 8/29/17
26 Compton Ct   Contemp 4 2.1 13 $739,000 $715,000 97% 8/29/17
35 Normandy Ct Prince Edward Point Colonial 4 3.1 53 $949,000 $925,000 97% 8/28/17
48 Emerald Valley Ln Emerald Valley Colonial 5 4.1 201 $1,749,000 $1,665,000 95% 8/25/17
21 Columbia Rd   Ranch 1 1 27 $99,900 $140,000 140% 8/25/17
297 S Finley Ave   Colonial 4 3.1 44 $1,199,000 $1,160,000 97% 8/22/17
28 Lexington Road Rebel Hill SplitLev 4 2.1 49 $615,000 $630,000 102% 8/18/17
151 Thackeray Dr Basking Ridge Colonial 5 2.1 0 $675,000 $675,000 100% 8/18/17
59 Hilltop Rd   Ranch 3 1 10 $550,000 $556,000 101% 8/16/17
457 Mine Brook Rd   Colonial 5 5.2 46 $1,399,000 $1,330,000 95% 8/16/17
5 Cottage St   Ranch 3 2 91 $379,000 $364,000 96% 8/15/17
120 Goltra Drive   SplitLev 4 2.1 11 $629,000 $598,000 95% 8/15/17
1 Watchung Dr Patriot Ridge Colonial 5 3.2 34 $999,999 $990,000 99% 8/15/17
40 Keats Road   Colonial 5 3.1 9 $599,000 $605,000 101% 8/15/17
23 Paisley Ln Revere Hill Colonial 4 3.2 24 $1,099,900 $1,070,000 97% 8/11/17
45 Madisonville Rd   CapeCod 3 2 23 $499,000 $470,000 94% 8/10/17
84 Carlisle Rd Carlisle/ The Hills Colonial 4 3.1 165 $777,900 $742,500 95% 8/10/17
15 Harrison Brook Dr   Ranch 4 3.1 7 $749,000 $745,000 99% 8/7/17
11 Bedford Dr Lafayette Watch Colonial 5 4.1 53 $1,099,000 $1,053,000 96% 8/4/17
46 Lexington Rd Rebel Hill SplitLev 4 2 14 $639,000 $652,500 102% 8/4/17
70 Governor Dr Sherbrooke Colonial 4 3.1 44 $1,139,000 $1,129,000 99% 8/4/17
85 Riverside Dr   SplitLev 4 2.1 56 $614,900 $604,000 98% 8/2/17
25 Queen Anne Dr   SplitLev 4 1.2 11 $499,000 $495,000 99% 8/2/17
105 Cross Rd   Ranch 3 1.1 27 $469,900 $426,000 91% 8/1/17
208 Spencer Rd   Ranch 2 1.1 13 $555,000 $545,000 98% 8/1/17
512 Lyons Rd   Colonial 3 1 4 $399,000 $423,500 106% 8/1/17
2017 August Basking Ridge Townhouses Sold
Street Address Development Style Bds Bths DOM List Price Sold Price %SP/LP Closed
51 Alexandria Way Spring Ridge FirstFlr 2 1 1 $260,000 $255,000 98% 8/31/17
76 Aspen Dr The Ridge MultiFlr 2 2 127 $385,000 $377,500 98% 8/31/17
314 Potomac Dr Spring Ridge OneFloor 2 2 27 $287,500 $283,750 99% 8/31/17
383 Potomac Dr Spring Ridge FirstFlr 1 1 49 $219,900 $215,000 98% 8/30/17
2002 Rose Ct The Cedars MultiFlr 1 1.1 24 $295,500 $297,000 101% 8/30/17
4 Smithfield Ct Spring Ridge OneFloor 2 2 98 $279,900 $270,000 96% 8/30/17
1 Clark Court Hamilton Woods TwnEndUn 4 2.1 67 $549,000 $545,000 99% 8/30/17
9 Patriot Hill Dr Patriot Hill TwnEndUn 3 2.1 128 $617,000 $615,000 100% 8/28/17
40 Musket Dr Hamilton Ridge TwnIntUn 3 2.1 14 $585,000 $590,000 101% 8/25/17
180 Alexandria Way Spring Ridge OneFloor 2 2 8 $254,900 $256,000 100% 8/21/17
30 Commonwealth Dr Spring Ridge TwnIntUn 2 2 69 $275,000 $275,000 100% 8/21/17
193 Potomac Drive Spring Ridge OneFloor 1 1 80 $215,500 $207,500 96% 8/18/17
129 Smithfield Ct Spring Ridge OneFloor 2 2 23 $279,999 $273,000 98% 8/18/17
55 Dickinson Rd Amherst Mews TwnEndUn 3 2.1 54 $885,000 $855,000 97% 8/18/17
228 Potomac Dr Spring Ridge OneFloor 2 1 80 $249,900 $242,000 97% 8/16/17
5 Patriot Hill Dr Patriot Hill TwnIntUn 3 2.1 17 $615,000 $596,000 97% 8/16/17
11 Commonwealth Dr Spring Ridge FirstFlr 1 1 18 $212,000 $195,000 92% 8/15/17
7 Hudson Dr Patriot Hill TwnIntUn 3 3.1 56 $655,000 $649,000 99% 8/15/17
51 Potomac Dr Spring Ridge OneFloor 2 1 9 $239,000 $235,000 98% 8/14/17
101 Jamestown Rd Spring Ridge OneFloor 2 2 45 $265,000 $240,000 91% 8/11/17
225 225 English Place Society Hill TwnIntUn 2 2.1 3 $300,000 $294,000 98% 8/11/17
56 Battalion Dr Hamilton Ridge TwnEndUn 3 2.2 123 $614,900 $602,000 98% 8/8/17
111 Watchung Dr Patriot Hill Larchmont TwnEndUn 3 2.1 74 $668,888 $668,888 100% 8/8/17
82 Sycamore Court The Cedars TwnEndUn 2 2.1 24 $359,900 $350,000 97% 8/8/17
201 Potomac Dr Spring Ridge OneFloor 2 2 15 $289,000 $289,000 100% 8/4/17
14 Deerfield Court The Barons TwnIntUn 2 3.1 13 $585,000 $570,000 97% 8/2/17
        Averages: 48   $394,063 98%